Southeast Iowa Regional Airport
KBRL : rendu visible

Aérodrome :











RETROUVEZ-NOUS SUR...

 
LOGIN :

S'inscrire | Disclaimer

   EN    FR    IT 

 









Légende :    VFR   VFR Marginal   IFR   IFR Intensif   IFR Très Intensif
Visi : 
Plafond : 
>= 8 km
>= 3000ft
5 à 8 km
1000 à 3000 ft
1500m à 5 km
500 à 1000 ft
800 à 1500m
200 à 500 ft
< 800m
< 200 ft
Symboles :   Orages  Brouillard  Fortes neiges  Fortes précipitations  Vent > 20 kt






- Altitude de l'aérodrome : 698 ft
- Code IATA : BRL


KBRL - Southeast Iowa Regional

DERNIER METAR :
  • 191209Z AUTO 30009KT 3SM BR OVC003 05/04 A2971 RMK AO2 T00500039

METARs EXPIRÉS :
  • 191153Z AUTO 29006KT 2 1/2SM BR OVC003 05/04 A2971 RMK AO2 SLP063 60000 T00500039 10050 20033 53002
  • 191142Z AUTO 29004KT 3SM BR OVC004 05/04 A2970 RMK AO2 T00500039
  • 191118Z AUTO 27006KT 4SM BR OVC008 04/03 A2970 RMK AO2 CIG 004V011 T00440033
  • 191053Z AUTO 25004KT 4SM BR OVC012 04/03 A2969 RMK AO2 SLP057 T00440033
  • 191034Z AUTO 24003KT 4SM BR BKN013 OVC045 04/03 A2968 RMK AO2 T00440033
  • 191004Z AUTO 00000KT 4SM BR SCT020 OVC034 04/03 A2968 RMK AO2 T00390033
  • 190953Z AUTO 23003KT 4SM BR BKN020 OVC038 04/03 A2969 RMK AO2 RAB22E33 SLP057 P0000 T00390028

TAF KBRL
Valide du 19 à 12h jusqu'au 20 à 12h UTC


191215Z 1912/2012 30009KT 3SM BR OVC003
FM191500 30011KT 6SM BR OVC008
FM192000 31009KT P6SM BKN020
FM200400 VRB03KT 3SM BR BKN025



MET'MAP, la Météo Aéronautique d'un coup d'oeil ! - Copyright ORBIFLY Décembre 2007 - Disclaimer

ORBIFLY MET'MAP TEAM :

Programmation & Développement : Alexandra Zaïnal
Conception & Développement : Baudouin d'Aumeries
Co-Programmation & Développement : Marc-Olivier Méhu
Soutien technique & logistique : Manuel Goepfert

Contact : metmap@orbifly.com




SOURCES & CREDITS :

   NOAA       Earth
Advisory